sensor_id;sensor_type;location;lat;lon;timestamp;P1;durP1;ratioP1;P2;durP2;ratioP2
13435;SDS011;6790;49.520;8.504;2023-02-28T00:00:30;1.97;;;1.60;;
13435;SDS011;6790;49.520;8.504;2023-02-28T00:02:56;1.73;;;1.60;;
13435;SDS011;6790;49.520;8.504;2023-02-28T00:05:23;3.27;;;1.30;;
13435;SDS011;6790;49.520;8.504;2023-02-28T00:07:50;2.23;;;1.97;;
13435;SDS011;6790;49.520;8.504;2023-02-28T00:10:20;2.27;;;2.00;;
13435;SDS011;6790;49.520;8.504;2023-02-28T00:12:50;3.53;;;1.80;;
13435;SDS011;6790;49.520;8.504;2023-02-28T00:15:18;2.33;;;2.00;;
13435;SDS011;6790;49.520;8.504;2023-02-28T00:17:45;3.13;;;1.90;;
13435;SDS011;6790;49.520;8.504;2023-02-28T00:20:11;2.03;;;1.83;;
13435;SDS011;6790;49.520;8.504;2023-02-28T00:22:38;4.50;;;1.97;;
13435;SDS011;6790;49.520;8.504;2023-02-28T00:25:07;4.53;;;1.93;;
13435;SDS011;6790;49.520;8.504;2023-02-28T00:27:34;2.07;;;1.67;;
13435;SDS011;6790;49.520;8.504;2023-02-28T00:30:02;1.70;;;1.60;;
13435;SDS011;6790;49.520;8.504;2023-02-28T00:32:29;2.30;;;1.80;;
13435;SDS011;6790;49.520;8.504;2023-02-28T00:34:55;2.03;;;1.77;;
13435;SDS011;6790;49.520;8.504;2023-02-28T00:37:21;2.10;;;1.80;;
13435;SDS011;6790;49.520;8.504;2023-02-28T00:39:47;4.47;;;2.00;;
13435;SDS011;6790;49.520;8.504;2023-02-28T00:42:13;1.60;;;1.50;;
13435;SDS011;6790;49.520;8.504;2023-02-28T00:44:38;2.57;;;1.70;;
13435;SDS011;6790;49.520;8.504;2023-02-28T00:47:04;1.80;;;1.70;;
13435;SDS011;6790;49.520;8.504;2023-02-28T00:49:30;2.47;;;2.10;;
13435;SDS011;6790;49.520;8.504;2023-02-28T00:51:55;3.97;;;2.30;;
13435;SDS011;6790;49.520;8.504;2023-02-28T00:54:21;1.93;;;1.83;;
13435;SDS011;6790;49.520;8.504;2023-02-28T00:56:48;1.83;;;1.63;;
13435;SDS011;6790;49.520;8.504;2023-02-28T00:59:14;4.13;;;1.80;;
13435;SDS011;6790;49.520;8.504;2023-02-28T01:01:42;2.40;;;1.93;;
13435;SDS011;6790;49.520;8.504;2023-02-28T01:04:09;2.07;;;1.70;;
13435;SDS011;6790;49.520;8.504;2023-02-28T01:06:36;3.13;;;1.50;;
13435;SDS011;6790;49.520;8.504;2023-02-28T01:09:02;2.17;;;1.93;;
13435;SDS011;6790;49.520;8.504;2023-02-28T01:11:30;2.80;;;1.90;;
13435;SDS011;6790;49.520;8.504;2023-02-28T01:13:57;1.90;;;1.67;;
13435;SDS011;6790;49.520;8.504;2023-02-28T01:16:23;2.37;;;1.83;;
13435;SDS011;6790;49.520;8.504;2023-02-28T01:18:48;3.97;;;2.10;;
13435;SDS011;6790;49.520;8.504;2023-02-28T01:21:16;9.43;;;2.27;;
13435;SDS011;6790;49.520;8.504;2023-02-28T01:23:44;4.60;;;2.17;;
13435;SDS011;6790;49.520;8.504;2023-02-28T01:26:12;2.57;;;2.17;;
13435;SDS011;6790;49.520;8.504;2023-02-28T01:28:40;2.07;;;1.83;;
13435;SDS011;6790;49.520;8.504;2023-02-28T01:31:06;4.33;;;1.87;;
13435;SDS011;6790;49.520;8.504;2023-02-28T01:33:33;2.57;;;2.30;;
13435;SDS011;6790;49.520;8.504;2023-02-28T01:36:00;1.93;;;1.83;;
13435;SDS011;6790;49.520;8.504;2023-02-28T01:38:33;1.87;;;1.70;;
13435;SDS011;6790;49.520;8.504;2023-02-28T01:40:59;3.47;;;1.97;;
13435;SDS011;6790;49.520;8.504;2023-02-28T01:43:27;6.13;;;1.90;;
13435;SDS011;6790;49.520;8.504;2023-02-28T01:45:55;3.33;;;2.50;;
13435;SDS011;6790;49.520;8.504;2023-02-28T01:48:26;2.60;;;2.07;;
13435;SDS011;6790;49.520;8.504;2023-02-28T01:50:57;2.77;;;1.80;;
13435;SDS011;6790;49.520;8.504;2023-02-28T01:53:30;2.40;;;2.20;;
13435;SDS011;6790;49.520;8.504;2023-02-28T01:56:01;8.17;;;2.00;;
13435;SDS011;6790;49.520;8.504;2023-02-28T01:58:31;2.13;;;1.90;;
13435;SDS011;6790;49.520;8.504;2023-02-28T02:00:57;1.73;;;1.63;;
13435;SDS011;6790;49.520;8.504;2023-02-28T02:03:22;2.23;;;1.60;;
13435;SDS011;6790;49.520;8.504;2023-02-28T02:05:49;3.57;;;2.20;;
13435;SDS011;6790;49.520;8.504;2023-02-28T02:08:19;3.00;;;2.40;;
13435;SDS011;6790;49.520;8.504;2023-02-28T02:10:52;4.70;;;2.70;;
13435;SDS011;6790;49.520;8.504;2023-02-28T02:23:01;2.73;;;2.10;;
13435;SDS011;6790;49.520;8.504;2023-02-28T02:31:20;3.40;;;2.10;;
13435;SDS011;6790;49.520;8.504;2023-02-28T02:34:20;1.67;;;1.57;;
13435;SDS011;6790;49.520;8.504;2023-02-28T02:37:27;2.30;;;1.90;;
13435;SDS011;6790;49.520;8.504;2023-02-28T02:40:20;2.80;;;1.87;;
13435;SDS011;6790;49.520;8.504;2023-02-28T02:45:59;2.90;;;2.43;;
13435;SDS011;6790;49.520;8.504;2023-02-28T02:48:34;3.17;;;2.57;;
13435;SDS011;6790;49.520;8.504;2023-02-28T02:51:04;3.20;;;2.90;;
13435;SDS011;6790;49.520;8.504;2023-02-28T02:53:38;3.40;;;2.17;;
13435;SDS011;6790;49.520;8.504;2023-02-28T02:56:11;2.07;;;1.77;;
13435;SDS011;6790;49.520;8.504;2023-02-28T02:58:38;5.23;;;2.17;;
13435;SDS011;6790;49.520;8.504;2023-02-28T03:01:08;2.93;;;2.40;;
13435;SDS011;6790;49.520;8.504;2023-02-28T03:03:40;2.20;;;2.00;;
13435;SDS011;6790;49.520;8.504;2023-02-28T03:06:07;2.87;;;2.27;;
13435;SDS011;6790;49.520;8.504;2023-02-28T03:08:34;2.20;;;2.00;;
13435;SDS011;6790;49.520;8.504;2023-02-28T03:11:03;3.17;;;2.13;;
13435;SDS011;6790;49.520;8.504;2023-02-28T03:16:33;4.17;;;2.77;;
13435;SDS011;6790;49.520;8.504;2023-02-28T03:22:13;2.30;;;1.90;;
13435;SDS011;6790;49.520;8.504;2023-02-28T03:33:23;2.03;;;1.83;;
13435;SDS011;6790;49.520;8.504;2023-02-28T03:35:56;3.93;;;3.50;;
13435;SDS011;6790;49.520;8.504;2023-02-28T03:38:48;3.53;;;2.63;;
13435;SDS011;6790;49.520;8.504;2023-02-28T03:44:17;2.80;;;2.20;;
13435;SDS011;6790;49.520;8.504;2023-02-28T03:47:07;2.20;;;2.00;;
13435;SDS011;6790;49.520;8.504;2023-02-28T03:49:43;2.20;;;1.87;;
13435;SDS011;6790;49.520;8.504;2023-02-28T03:52:23;2.63;;;2.00;;
13435;SDS011;6790;49.520;8.504;2023-02-28T03:54:56;3.10;;;1.97;;
13435;SDS011;6790;49.520;8.504;2023-02-28T03:57:41;5.90;;;2.90;;
13435;SDS011;6790;49.520;8.504;2023-02-28T04:00:25;2.60;;;2.27;;
13435;SDS011;6790;49.520;8.504;2023-02-28T04:03:03;2.50;;;2.30;;
13435;SDS011;6790;49.520;8.504;2023-02-28T04:05:29;3.50;;;2.57;;
13435;SDS011;6790;49.520;8.504;2023-02-28T04:08:05;2.93;;;2.63;;
13435;SDS011;6790;49.520;8.504;2023-02-28T04:10:32;3.07;;;2.33;;
13435;SDS011;6790;49.520;8.504;2023-02-28T04:12:58;2.53;;;2.10;;
13435;SDS011;6790;49.520;8.504;2023-02-28T04:15:23;2.30;;;2.10;;
13435;SDS011;6790;49.520;8.504;2023-02-28T04:17:49;3.63;;;2.67;;
13435;SDS011;6790;49.520;8.504;2023-02-28T04:20:15;2.63;;;2.40;;
13435;SDS011;6790;49.520;8.504;2023-02-28T04:22:41;2.73;;;2.10;;
13435;SDS011;6790;49.520;8.504;2023-02-28T04:25:07;2.00;;;1.90;;
13435;SDS011;6790;49.520;8.504;2023-02-28T04:27:33;4.87;;;2.73;;
13435;SDS011;6790;49.520;8.504;2023-02-28T04:29:59;5.07;;;2.40;;
13435;SDS011;6790;49.520;8.504;2023-02-28T04:32:25;4.00;;;3.03;;
13435;SDS011;6790;49.520;8.504;2023-02-28T04:34:50;2.43;;;2.20;;
13435;SDS011;6790;49.520;8.504;2023-02-28T04:37:16;3.00;;;2.70;;
13435;SDS011;6790;49.520;8.504;2023-02-28T04:39:42;3.80;;;2.50;;
13435;SDS011;6790;49.520;8.504;2023-02-28T04:42:08;4.97;;;2.77;;
13435;SDS011;6790;49.520;8.504;2023-02-28T04:44:34;3.37;;;2.67;;
13435;SDS011;6790;49.520;8.504;2023-02-28T04:47:00;5.47;;;2.60;;
13435;SDS011;6790;49.520;8.504;2023-02-28T04:49:26;3.53;;;2.50;;
13435;SDS011;6790;49.520;8.504;2023-02-28T04:51:52;3.03;;;2.63;;
13435;SDS011;6790;49.520;8.504;2023-02-28T04:54:18;2.90;;;2.23;;
13435;SDS011;6790;49.520;8.504;2023-02-28T04:56:43;3.37;;;2.70;;
13435;SDS011;6790;49.520;8.504;2023-02-28T04:59:09;2.40;;;2.03;;
13435;SDS011;6790;49.520;8.504;2023-02-28T05:01:35;4.50;;;2.50;;
13435;SDS011;6790;49.520;8.504;2023-02-28T05:04:02;1.87;;;1.77;;
13435;SDS011;6790;49.520;8.504;2023-02-28T05:06:31;2.87;;;2.07;;
13435;SDS011;6790;49.520;8.504;2023-02-28T05:08:57;3.13;;;2.50;;
13435;SDS011;6790;49.520;8.504;2023-02-28T05:11:24;3.60;;;2.57;;
13435;SDS011;6790;49.520;8.504;2023-02-28T05:13:59;2.60;;;2.30;;
13435;SDS011;6790;49.520;8.504;2023-02-28T05:16:30;3.23;;;2.67;;
13435;SDS011;6790;49.520;8.504;2023-02-28T05:18:56;2.67;;;2.40;;
13435;SDS011;6790;49.520;8.504;2023-02-28T05:21:23;5.20;;;2.90;;
13435;SDS011;6790;49.520;8.504;2023-02-28T05:23:53;3.67;;;2.63;;
13435;SDS011;6790;49.520;8.504;2023-02-28T05:26:21;3.20;;;2.57;;
13435;SDS011;6790;49.520;8.504;2023-02-28T05:28:47;2.70;;;1.93;;
13435;SDS011;6790;49.520;8.504;2023-02-28T05:31:13;4.23;;;2.97;;
13435;SDS011;6790;49.520;8.504;2023-02-28T05:33:39;3.63;;;3.00;;
13435;SDS011;6790;49.520;8.504;2023-02-28T05:36:05;2.53;;;2.00;;
13435;SDS011;6790;49.520;8.504;2023-02-28T05:38:31;5.53;;;2.83;;
13435;SDS011;6790;49.520;8.504;2023-02-28T05:40:57;4.37;;;3.30;;
13435;SDS011;6790;49.520;8.504;2023-02-28T05:43:23;2.73;;;2.43;;
13435;SDS011;6790;49.520;8.504;2023-02-28T05:45:49;3.67;;;2.20;;
13435;SDS011;6790;49.520;8.504;2023-02-28T05:48:14;2.93;;;2.57;;
13435;SDS011;6790;49.520;8.504;2023-02-28T05:50:40;2.93;;;2.47;;
13435;SDS011;6790;49.520;8.504;2023-02-28T05:53:07;3.53;;;2.93;;
13435;SDS011;6790;49.520;8.504;2023-02-28T05:55:33;3.03;;;2.33;;
13435;SDS011;6790;49.520;8.504;2023-02-28T05:58:00;6.53;;;2.83;;
13435;SDS011;6790;49.520;8.504;2023-02-28T06:00:26;3.30;;;2.60;;
13435;SDS011;6790;49.520;8.504;2023-02-28T06:02:52;5.27;;;2.93;;
13435;SDS011;6790;49.520;8.504;2023-02-28T06:05:21;2.97;;;2.00;;
13435;SDS011;6790;49.520;8.504;2023-02-28T06:07:47;4.97;;;2.53;;
13435;SDS011;6790;49.520;8.504;2023-02-28T06:10:13;4.90;;;2.70;;
13435;SDS011;6790;49.520;8.504;2023-02-28T06:12:39;3.73;;;2.87;;
13435;SDS011;6790;49.520;8.504;2023-02-28T06:15:06;5.47;;;3.43;;
13435;SDS011;6790;49.520;8.504;2023-02-28T06:17:36;3.50;;;2.30;;
13435;SDS011;6790;49.520;8.504;2023-02-28T06:20:03;10.67;;;3.10;;
13435;SDS011;6790;49.520;8.504;2023-02-28T06:22:30;3.03;;;2.70;;
13435;SDS011;6790;49.520;8.504;2023-02-28T06:24:56;3.83;;;2.70;;
13435;SDS011;6790;49.520;8.504;2023-02-28T06:27:22;3.37;;;2.77;;
13435;SDS011;6790;49.520;8.504;2023-02-28T06:29:48;7.00;;;3.33;;
13435;SDS011;6790;49.520;8.504;2023-02-28T06:32:14;5.93;;;2.30;;
13435;SDS011;6790;49.520;8.504;2023-02-28T06:34:39;2.47;;;2.00;;
13435;SDS011;6790;49.520;8.504;2023-02-28T06:37:05;4.17;;;2.83;;
13435;SDS011;6790;49.520;8.504;2023-02-28T06:39:31;4.60;;;3.17;;
13435;SDS011;6790;49.520;8.504;2023-02-28T06:41:56;12.23;;;6.57;;
13435;SDS011;6790;49.520;8.504;2023-02-28T06:44:22;5.80;;;4.60;;
13435;SDS011;6790;49.520;8.504;2023-02-28T06:46:49;10.27;;;5.03;;
13435;SDS011;6790;49.520;8.504;2023-02-28T06:49:14;4.80;;;3.50;;
13435;SDS011;6790;49.520;8.504;2023-02-28T06:51:41;3.13;;;2.20;;
13435;SDS011;6790;49.520;8.504;2023-02-28T06:54:10;4.80;;;3.43;;
13435;SDS011;6790;49.520;8.504;2023-02-28T06:56:36;3.10;;;2.67;;
13435;SDS011;6790;49.520;8.504;2023-02-28T06:59:03;5.87;;;3.67;;
13435;SDS011;6790;49.520;8.504;2023-02-28T07:01:29;4.53;;;2.80;;
13435;SDS011;6790;49.520;8.504;2023-02-28T07:03:56;5.40;;;3.17;;
13435;SDS011;6790;49.520;8.504;2023-02-28T07:06:22;3.07;;;2.73;;
13435;SDS011;6790;49.520;8.504;2023-02-28T07:08:49;5.83;;;3.07;;
13435;SDS011;6790;49.520;8.504;2023-02-28T07:11:20;6.60;;;3.40;;
13435;SDS011;6790;49.520;8.504;2023-02-28T07:13:48;4.10;;;3.47;;
13435;SDS011;6790;49.520;8.504;2023-02-28T07:16:15;7.17;;;4.07;;
13435;SDS011;6790;49.520;8.504;2023-02-28T07:18:41;7.97;;;2.60;;
13435;SDS011;6790;49.520;8.504;2023-02-28T07:21:08;4.77;;;3.47;;
13435;SDS011;6790;49.520;8.504;2023-02-28T07:23:35;3.43;;;3.00;;
13435;SDS011;6790;49.520;8.504;2023-02-28T07:26:04;3.27;;;2.90;;
13435;SDS011;6790;49.520;8.504;2023-02-28T07:28:39;4.20;;;2.50;;
13435;SDS011;6790;49.520;8.504;2023-02-28T07:31:10;3.40;;;2.70;;
13435;SDS011;6790;49.520;8.504;2023-02-28T07:33:38;6.27;;;3.90;;
13435;SDS011;6790;49.520;8.504;2023-02-28T07:36:10;5.70;;;3.13;;
13435;SDS011;6790;49.520;8.504;2023-02-28T07:38:40;4.93;;;2.80;;
13435;SDS011;6790;49.520;8.504;2023-02-28T07:41:08;4.70;;;2.93;;
13435;SDS011;6790;49.520;8.504;2023-02-28T07:43:35;3.97;;;3.00;;
13435;SDS011;6790;49.520;8.504;2023-02-28T07:46:02;6.73;;;3.00;;
13435;SDS011;6790;49.520;8.504;2023-02-28T07:48:42;12.30;;;3.30;;
13435;SDS011;6790;49.520;8.504;2023-02-28T07:51:08;8.80;;;4.23;;
13435;SDS011;6790;49.520;8.504;2023-02-28T07:53:34;4.53;;;3.60;;
13435;SDS011;6790;49.520;8.504;2023-02-28T07:56:00;4.50;;;3.10;;
13435;SDS011;6790;49.520;8.504;2023-02-28T07:58:27;5.23;;;3.50;;
13435;SDS011;6790;49.520;8.504;2023-02-28T08:00:55;3.97;;;3.37;;
13435;SDS011;6790;49.520;8.504;2023-02-28T08:03:22;4.40;;;3.00;;
13435;SDS011;6790;49.520;8.504;2023-02-28T08:05:48;5.50;;;3.13;;
13435;SDS011;6790;49.520;8.504;2023-02-28T08:08:14;5.07;;;3.30;;
13435;SDS011;6790;49.520;8.504;2023-02-28T08:10:41;6.03;;;3.50;;
13435;SDS011;6790;49.520;8.504;2023-02-28T08:13:07;3.97;;;3.57;;
13435;SDS011;6790;49.520;8.504;2023-02-28T08:15:33;4.83;;;3.50;;
13435;SDS011;6790;49.520;8.504;2023-02-28T08:17:59;3.77;;;3.33;;
13435;SDS011;6790;49.520;8.504;2023-02-28T08:20:25;3.47;;;2.80;;
13435;SDS011;6790;49.520;8.504;2023-02-28T08:22:52;6.30;;;4.23;;
13435;SDS011;6790;49.520;8.504;2023-02-28T08:25:17;6.47;;;3.53;;
13435;SDS011;6790;49.520;8.504;2023-02-28T08:27:43;3.60;;;3.23;;
13435;SDS011;6790;49.520;8.504;2023-02-28T08:30:10;4.57;;;3.43;;
13435;SDS011;6790;49.520;8.504;2023-02-28T08:32:38;4.27;;;3.37;;
13435;SDS011;6790;49.520;8.504;2023-02-28T08:35:04;4.57;;;3.27;;
13435;SDS011;6790;49.520;8.504;2023-02-28T08:37:31;6.47;;;4.20;;
13435;SDS011;6790;49.520;8.504;2023-02-28T08:39:56;5.40;;;3.63;;
13435;SDS011;6790;49.520;8.504;2023-02-28T08:42:23;4.70;;;3.70;;
13435;SDS011;6790;49.520;8.504;2023-02-28T08:44:49;6.20;;;3.50;;
13435;SDS011;6790;49.520;8.504;2023-02-28T08:47:15;6.50;;;4.03;;
13435;SDS011;6790;49.520;8.504;2023-02-28T08:49:41;6.60;;;3.80;;
13435;SDS011;6790;49.520;8.504;2023-02-28T08:52:06;5.80;;;3.60;;
13435;SDS011;6790;49.520;8.504;2023-02-28T08:54:32;5.60;;;3.60;;
13435;SDS011;6790;49.520;8.504;2023-02-28T08:56:59;5.93;;;4.07;;
13435;SDS011;6790;49.520;8.504;2023-02-28T08:59:25;5.07;;;3.37;;
13435;SDS011;6790;49.520;8.504;2023-02-28T09:01:50;7.07;;;3.80;;
13435;SDS011;6790;49.520;8.504;2023-02-28T09:04:16;6.23;;;4.10;;
13435;SDS011;6790;49.520;8.504;2023-02-28T09:06:42;6.30;;;4.63;;
13435;SDS011;6790;49.520;8.504;2023-02-28T09:09:09;5.93;;;4.00;;
13435;SDS011;6790;49.520;8.504;2023-02-28T09:11:35;7.07;;;3.33;;
13435;SDS011;6790;49.520;8.504;2023-02-28T09:14:01;5.40;;;4.23;;
13435;SDS011;6790;49.520;8.504;2023-02-28T09:16:28;8.40;;;4.57;;
13435;SDS011;6790;49.520;8.504;2023-02-28T09:18:55;7.23;;;4.00;;
13435;SDS011;6790;49.520;8.504;2023-02-28T09:21:21;5.00;;;3.80;;
13435;SDS011;6790;49.520;8.504;2023-02-28T09:23:48;13.17;;;4.50;;
13435;SDS011;6790;49.520;8.504;2023-02-28T09:28:47;6.93;;;4.50;;
13435;SDS011;6790;49.520;8.504;2023-02-28T09:31:15;6.23;;;4.23;;
13435;SDS011;6790;49.520;8.504;2023-02-28T09:33:45;6.77;;;4.13;;
13435;SDS011;6790;49.520;8.504;2023-02-28T09:36:15;8.20;;;4.57;;
13435;SDS011;6790;49.520;8.504;2023-02-28T09:38:41;5.50;;;3.63;;
13435;SDS011;6790;49.520;8.504;2023-02-28T09:41:26;4.40;;;3.80;;
13435;SDS011;6790;49.520;8.504;2023-02-28T09:44:02;6.00;;;4.20;;
13435;SDS011;6790;49.520;8.504;2023-02-28T09:46:37;6.63;;;4.63;;
13435;SDS011;6790;49.520;8.504;2023-02-28T09:49:11;5.70;;;3.87;;
13435;SDS011;6790;49.520;8.504;2023-02-28T09:51:56;6.10;;;4.30;;
13435;SDS011;6790;49.520;8.504;2023-02-28T09:54:28;7.40;;;4.37;;
13435;SDS011;6790;49.520;8.504;2023-02-28T09:56:58;9.23;;;5.17;;
13435;SDS011;6790;49.520;8.504;2023-02-28T10:05:22;9.17;;;5.67;;
13435;SDS011;6790;49.520;8.504;2023-02-28T10:07:58;6.00;;;4.90;;
13435;SDS011;6790;49.520;8.504;2023-02-28T10:10:51;7.00;;;4.60;;
13435;SDS011;6790;49.520;8.504;2023-02-28T10:13:36;8.03;;;4.93;;
13435;SDS011;6790;49.520;8.504;2023-02-28T10:16:18;6.90;;;4.40;;
13435;SDS011;6790;49.520;8.504;2023-02-28T10:18:54;7.40;;;4.57;;
13435;SDS011;6790;49.520;8.504;2023-02-28T10:21:35;6.23;;;4.30;;
13435;SDS011;6790;49.520;8.504;2023-02-28T10:27:21;6.87;;;4.60;;
13435;SDS011;6790;49.520;8.504;2023-02-28T10:29:54;6.33;;;4.50;;
13435;SDS011;6790;49.520;8.504;2023-02-28T10:37:50;10.50;;;4.50;;
13435;SDS011;6790;49.520;8.504;2023-02-28T10:45:23;6.00;;;4.07;;
13435;SDS011;6790;49.520;8.504;2023-02-28T10:53:17;6.17;;;4.13;;
13435;SDS011;6790;49.520;8.504;2023-02-28T11:04:03;6.30;;;4.37;;
13435;SDS011;6790;49.520;8.504;2023-02-28T11:06:58;5.27;;;4.13;;
13435;SDS011;6790;49.520;8.504;2023-02-28T11:12:00;5.90;;;4.60;;
13435;SDS011;6790;49.520;8.504;2023-02-28T11:14:35;8.37;;;5.10;;
13435;SDS011;6790;49.520;8.504;2023-02-28T11:17:14;6.67;;;4.43;;
13435;SDS011;6790;49.520;8.504;2023-02-28T11:19:51;5.50;;;4.23;;
13435;SDS011;6790;49.520;8.504;2023-02-28T11:22:24;4.20;;;3.77;;
13435;SDS011;6790;49.520;8.504;2023-02-28T11:24:57;4.97;;;3.63;;
13435;SDS011;6790;49.520;8.504;2023-02-28T11:29:55;5.90;;;4.57;;
13435;SDS011;6790;49.520;8.504;2023-02-28T11:32:24;6.97;;;4.80;;
13435;SDS011;6790;49.520;8.504;2023-02-28T11:37:52;6.03;;;4.77;;
13435;SDS011;6790;49.520;8.504;2023-02-28T11:40:19;8.47;;;4.17;;
13435;SDS011;6790;49.520;8.504;2023-02-28T11:48:42;6.70;;;4.23;;
13435;SDS011;6790;49.520;8.504;2023-02-28T11:51:32;6.33;;;4.30;;
13435;SDS011;6790;49.520;8.504;2023-02-28T11:54:16;7.03;;;4.23;;
13435;SDS011;6790;49.520;8.504;2023-02-28T11:56:51;7.60;;;4.60;;
13435;SDS011;6790;49.520;8.504;2023-02-28T11:59:34;9.03;;;4.67;;
13435;SDS011;6790;49.520;8.504;2023-02-28T12:03:02;6.67;;;4.30;;
13435;SDS011;6790;49.520;8.504;2023-02-28T12:05:43;4.63;;;3.90;;
13435;SDS011;6790;49.520;8.504;2023-02-28T12:11:29;8.63;;;4.40;;
13435;SDS011;6790;49.520;8.504;2023-02-28T12:26:14;5.67;;;4.57;;
13435;SDS011;6790;49.520;8.504;2023-02-28T12:28:53;7.97;;;5.00;;
13435;SDS011;6790;49.520;8.504;2023-02-28T12:31:31;6.63;;;4.60;;
13435;SDS011;6790;49.520;8.504;2023-02-28T12:34:06;10.07;;;5.67;;
13435;SDS011;6790;49.520;8.504;2023-02-28T12:36:38;7.03;;;4.97;;
13435;SDS011;6790;49.520;8.504;2023-02-28T12:39:11;7.33;;;4.47;;
13435;SDS011;6790;49.520;8.504;2023-02-28T12:42:13;5.73;;;4.43;;
13435;SDS011;6790;49.520;8.504;2023-02-28T12:44:50;7.67;;;5.23;;
13435;SDS011;6790;49.520;8.504;2023-02-28T12:47:21;7.43;;;5.43;;
13435;SDS011;6790;49.520;8.504;2023-02-28T12:49:58;8.03;;;5.43;;
13435;SDS011;6790;49.520;8.504;2023-02-28T12:52:36;7.63;;;5.27;;
13435;SDS011;6790;49.520;8.504;2023-02-28T13:03:51;6.77;;;4.67;;
13435;SDS011;6790;49.520;8.504;2023-02-28T13:09:30;7.03;;;5.13;;
13435;SDS011;6790;49.520;8.504;2023-02-28T13:11:55;7.43;;;4.90;;
13435;SDS011;6790;49.520;8.504;2023-02-28T13:14:29;6.70;;;5.27;;
13435;SDS011;6790;49.520;8.504;2023-02-28T13:17:09;6.90;;;5.20;;
13435;SDS011;6790;49.520;8.504;2023-02-28T13:19:43;7.47;;;5.40;;
13435;SDS011;6790;49.520;8.504;2023-02-28T13:23:04;8.70;;;5.20;;
13435;SDS011;6790;49.520;8.504;2023-02-28T13:27:46;7.60;;;5.03;;
13435;SDS011;6790;49.520;8.504;2023-02-28T13:33:31;9.13;;;5.00;;
13435;SDS011;6790;49.520;8.504;2023-02-28T13:36:27;6.93;;;5.27;;
13435;SDS011;6790;49.520;8.504;2023-02-28T13:38:59;7.43;;;4.73;;
13435;SDS011;6790;49.520;8.504;2023-02-28T13:54:37;5.83;;;4.80;;
13435;SDS011;6790;49.520;8.504;2023-02-28T14:09:02;8.40;;;5.33;;
13435;SDS011;6790;49.520;8.504;2023-02-28T14:11:41;8.77;;;4.83;;
13435;SDS011;6790;49.520;8.504;2023-02-28T14:14:09;8.50;;;5.10;;
13435;SDS011;6790;49.520;8.504;2023-02-28T14:17:21;7.57;;;5.00;;
13435;SDS011;6790;49.520;8.504;2023-02-28T14:19:46;6.53;;;4.90;;
13435;SDS011;6790;49.520;8.504;2023-02-28T14:25:21;6.67;;;4.80;;
13435;SDS011;6790;49.520;8.504;2023-02-28T14:31:09;7.33;;;4.87;;
13435;SDS011;6790;49.520;8.504;2023-02-28T14:33:48;5.00;;;3.80;;
13435;SDS011;6790;49.520;8.504;2023-02-28T14:36:39;8.30;;;5.47;;
13435;SDS011;6790;49.520;8.504;2023-02-28T14:39:07;6.87;;;5.10;;
13435;SDS011;6790;49.520;8.504;2023-02-28T14:41:42;7.17;;;5.43;;
13435;SDS011;6790;49.520;8.504;2023-02-28T14:44:20;8.40;;;5.40;;
13435;SDS011;6790;49.520;8.504;2023-02-28T14:47:12;8.20;;;5.63;;
13435;SDS011;6790;49.520;8.504;2023-02-28T14:49:44;7.77;;;5.30;;
13435;SDS011;6790;49.520;8.504;2023-02-28T14:52:15;7.07;;;4.90;;
13435;SDS011;6790;49.520;8.504;2023-02-28T14:54:43;6.43;;;4.90;;
13435;SDS011;6790;49.520;8.504;2023-02-28T15:02:53;8.20;;;5.70;;
13435;SDS011;6790;49.520;8.504;2023-02-28T15:05:27;7.03;;;4.90;;
13435;SDS011;6790;49.520;8.504;2023-02-28T15:08:06;7.43;;;5.40;;
13435;SDS011;6790;49.520;8.504;2023-02-28T15:10:49;6.63;;;5.03;;
13435;SDS011;6790;49.520;8.504;2023-02-28T15:13:23;8.27;;;5.20;;
13435;SDS011;6790;49.520;8.504;2023-02-28T15:16:37;6.30;;;5.03;;
13435;SDS011;6790;49.520;8.504;2023-02-28T15:19:20;8.97;;;5.47;;
13435;SDS011;6790;49.520;8.504;2023-02-28T15:21:52;9.63;;;4.73;;
13435;SDS011;6790;49.520;8.504;2023-02-28T15:24:46;6.40;;;4.83;;
13435;SDS011;6790;49.520;8.504;2023-02-28T15:27:20;12.00;;;5.23;;
13435;SDS011;6790;49.520;8.504;2023-02-28T15:29:53;13.70;;;6.00;;
13435;SDS011;6790;49.520;8.504;2023-02-28T15:32:33;6.93;;;4.80;;
13435;SDS011;6790;49.520;8.504;2023-02-28T15:35:29;7.63;;;4.60;;
13435;SDS011;6790;49.520;8.504;2023-02-28T15:38:00;8.57;;;5.40;;
13435;SDS011;6790;49.520;8.504;2023-02-28T15:40:41;6.67;;;4.83;;
13435;SDS011;6790;49.520;8.504;2023-02-28T15:43:18;8.50;;;5.23;;
13435;SDS011;6790;49.520;8.504;2023-02-28T15:46:05;6.37;;;4.80;;
13435;SDS011;6790;49.520;8.504;2023-02-28T15:48:34;7.67;;;5.07;;
13435;SDS011;6790;49.520;8.504;2023-02-28T15:51:12;7.17;;;4.87;;
13435;SDS011;6790;49.520;8.504;2023-02-28T15:53:51;10.23;;;5.27;;
13435;SDS011;6790;49.520;8.504;2023-02-28T15:56:28;10.07;;;4.73;;
13435;SDS011;6790;49.520;8.504;2023-02-28T15:58:58;8.27;;;4.97;;
13435;SDS011;6790;49.520;8.504;2023-02-28T16:01:30;8.50;;;5.93;;
13435;SDS011;6790;49.520;8.504;2023-02-28T16:04:02;8.23;;;5.40;;
13435;SDS011;6790;49.520;8.504;2023-02-28T16:06:39;7.57;;;4.80;;
13435;SDS011;6790;49.520;8.504;2023-02-28T16:09:14;8.57;;;5.47;;
13435;SDS011;6790;49.520;8.504;2023-02-28T16:11:45;11.27;;;5.77;;
13435;SDS011;6790;49.520;8.504;2023-02-28T16:14:30;8.40;;;4.80;;
13435;SDS011;6790;49.520;8.504;2023-02-28T16:17:02;8.10;;;4.87;;
13435;SDS011;6790;49.520;8.504;2023-02-28T16:19:36;7.20;;;5.00;;
13435;SDS011;6790;49.520;8.504;2023-02-28T16:22:03;6.27;;;4.80;;
13435;SDS011;6790;49.520;8.504;2023-02-28T16:24:29;6.10;;;4.80;;
13435;SDS011;6790;49.520;8.504;2023-02-28T16:26:55;8.47;;;5.27;;
13435;SDS011;6790;49.520;8.504;2023-02-28T16:29:26;6.60;;;4.80;;
13435;SDS011;6790;49.520;8.504;2023-02-28T16:31:58;7.73;;;5.23;;
13435;SDS011;6790;49.520;8.504;2023-02-28T16:34:25;7.43;;;5.10;;
13435;SDS011;6790;49.520;8.504;2023-02-28T16:36:51;7.63;;;5.17;;
13435;SDS011;6790;49.520;8.504;2023-02-28T16:39:20;7.97;;;5.00;;
13435;SDS011;6790;49.520;8.504;2023-02-28T16:41:48;7.00;;;4.73;;
13435;SDS011;6790;49.520;8.504;2023-02-28T16:44:23;7.67;;;5.10;;
13435;SDS011;6790;49.520;8.504;2023-02-28T16:47:00;6.87;;;5.00;;
13435;SDS011;6790;49.520;8.504;2023-02-28T16:49:28;7.63;;;5.27;;
13435;SDS011;6790;49.520;8.504;2023-02-28T16:51:54;8.90;;;4.87;;
13435;SDS011;6790;49.520;8.504;2023-02-28T16:54:20;8.00;;;5.23;;
13435;SDS011;6790;49.520;8.504;2023-02-28T16:56:46;10.20;;;5.90;;
13435;SDS011;6790;49.520;8.504;2023-02-28T16:59:18;16.13;;;9.60;;
13435;SDS011;6790;49.520;8.504;2023-02-28T17:01:48;15.33;;;8.43;;
13435;SDS011;6790;49.520;8.504;2023-02-28T17:04:15;13.40;;;6.80;;
13435;SDS011;6790;49.520;8.504;2023-02-28T17:06:41;13.67;;;9.33;;
13435;SDS011;6790;49.520;8.504;2023-02-28T17:09:14;11.17;;;7.90;;
13435;SDS011;6790;49.520;8.504;2023-02-28T17:11:45;11.90;;;9.00;;
13435;SDS011;6790;49.520;8.504;2023-02-28T17:14:12;15.67;;;9.80;;
13435;SDS011;6790;49.520;8.504;2023-02-28T17:16:38;17.20;;;9.70;;
13435;SDS011;6790;49.520;8.504;2023-02-28T17:19:06;9.00;;;6.63;;
13435;SDS011;6790;49.520;8.504;2023-02-28T17:21:36;11.17;;;6.73;;
13435;SDS011;6790;49.520;8.504;2023-02-28T17:24:02;12.37;;;7.10;;
13435;SDS011;6790;49.520;8.504;2023-02-28T17:26:29;19.43;;;9.23;;
13435;SDS011;6790;49.520;8.504;2023-02-28T17:28:55;34.50;;;17.97;;
13435;SDS011;6790;49.520;8.504;2023-02-28T17:31:23;24.10;;;13.23;;
13435;SDS011;6790;49.520;8.504;2023-02-28T17:33:49;17.43;;;8.97;;
13435;SDS011;6790;49.520;8.504;2023-02-28T17:36:17;14.70;;;7.90;;
13435;SDS011;6790;49.520;8.504;2023-02-28T17:38:48;15.80;;;7.80;;
13435;SDS011;6790;49.520;8.504;2023-02-28T17:41:14;13.37;;;7.97;;
13435;SDS011;6790;49.520;8.504;2023-02-28T17:43:40;21.77;;;11.60;;
13435;SDS011;6790;49.520;8.504;2023-02-28T17:46:06;21.17;;;10.63;;
13435;SDS011;6790;49.520;8.504;2023-02-28T17:48:50;18.47;;;10.77;;
13435;SDS011;6790;49.520;8.504;2023-02-28T17:51:18;32.17;;;12.53;;
13435;SDS011;6790;49.520;8.504;2023-02-28T17:53:46;16.10;;;8.57;;
13435;SDS011;6790;49.520;8.504;2023-02-28T17:56:17;13.37;;;7.53;;
13435;SDS011;6790;49.520;8.504;2023-02-28T17:58:48;20.07;;;12.00;;